createdAt,value
2023-01-07T22:14:14.097Z,1001.99
2023-01-07T22:15:13.924Z,1002.00
2023-01-07T22:16:13.915Z,1001.93
2023-01-07T22:17:13.831Z,1001.95
2023-01-07T22:18:13.776Z,1001.97
2023-01-07T22:19:13.723Z,1001.99
2023-01-07T22:20:13.679Z,1002.02
2023-01-07T22:21:13.626Z,1001.90
2023-01-07T22:22:13.577Z,1001.95
2023-01-07T22:23:13.530Z,1001.92
2023-01-07T22:24:13.479Z,1001.94
2023-01-07T22:25:13.437Z,1002.00
2023-01-07T22:26:13.386Z,1001.99
2023-01-07T22:27:13.343Z,1001.94
2023-01-07T22:28:13.293Z,1001.98
2023-01-07T22:29:13.247Z,1001.97
2023-01-07T22:30:13.315Z,1002.03
2023-01-07T22:31:13.191Z,1002.11
2023-01-07T22:32:13.118Z,1002.16
2023-01-07T22:33:13.074Z,1002.12
2023-01-07T22:34:13.017Z,1002.17
2023-01-07T22:35:12.972Z,1002.22
2023-01-07T22:36:12.926Z,1002.19
2023-01-07T22:37:12.884Z,1002.22
2023-01-07T22:38:12.836Z,1002.19
2023-01-07T22:39:12.792Z,1002.14
2023-01-07T22:40:12.748Z,1002.10
2023-01-07T22:41:12.704Z,1002.12
2023-01-07T22:42:12.656Z,1002.08
2023-01-07T22:43:12.617Z,1002.09
2023-01-07T22:44:12.574Z,1002.10
2023-01-07T22:45:12.539Z,1002.03
2023-01-07T22:46:12.653Z,1001.96
2023-01-07T22:47:12.430Z,1002.00
2023-01-07T22:48:12.382Z,1002.01
2023-01-07T22:49:12.352Z,1002.04
2023-01-07T22:50:12.296Z,1001.96
2023-01-07T22:51:12.253Z,1001.90
2023-01-07T22:52:12.209Z,1001.91
2023-01-07T22:53:12.163Z,1001.93
2023-01-07T22:54:12.119Z,1001.97
2023-01-07T22:55:12.078Z,1001.95
2023-01-07T22:56:12.037Z,1001.95
2023-01-07T22:57:11.997Z,1002.05
2023-01-07T22:58:11.942Z,1002.01
2023-01-07T22:59:11.898Z,1001.92
2023-01-07T23:00:11.848Z,1001.97
2023-01-07T23:01:11.900Z,1001.97
2023-01-07T23:02:11.885Z,1001.93
2023-01-07T23:03:11.802Z,1001.95
2023-01-07T23:04:11.766Z,1002.00
2023-01-07T23:05:11.627Z,1001.94
2023-01-07T23:06:11.588Z,1001.91
2023-01-07T23:07:11.542Z,1001.95
2023-01-07T23:08:11.505Z,1001.93
2023-01-07T23:09:11.462Z,1001.84
2023-01-07T23:10:11.406Z,1001.87
2023-01-07T23:11:11.364Z,1001.90
2023-01-07T23:12:11.437Z,1001.83
2023-01-07T23:13:11.273Z,1001.85
2023-01-07T23:14:11.231Z,1001.83
2023-01-07T23:15:11.187Z,1001.85
2023-01-07T23:16:11.177Z,1001.73
2023-01-07T23:17:11.095Z,1001.68
2023-01-07T23:18:11.188Z,1001.63
2023-01-07T23:19:11.014Z,1001.70
2023-01-07T23:20:10.960Z,1001.65
2023-01-07T23:21:10.932Z,1001.68
2023-01-07T23:22:10.876Z,1001.70
2023-01-07T23:23:10.830Z,1001.71
2023-01-07T23:24:10.784Z,1001.66
2023-01-07T23:25:10.743Z,1001.72
2023-01-07T23:26:10.739Z,1001.71
2023-01-07T23:27:10.661Z,1001.75
2023-01-07T23:28:10.685Z,1001.65
2023-01-07T23:29:10.656Z,1001.67
2023-01-07T23:30:10.522Z,1001.68
2023-01-07T23:31:10.579Z,1001.71
2023-01-07T23:32:10.774Z,1001.69
2023-01-07T23:33:10.418Z,1001.64
2023-01-07T23:34:10.624Z,1001.70
2023-01-07T23:35:10.310Z,1001.66
2023-01-07T23:36:10.291Z,1001.69
2023-01-07T23:37:10.211Z,1001.68
2023-01-07T23:38:10.166Z,1001.73
2023-01-07T23:39:10.120Z,1001.71
2023-01-07T23:40:10.093Z,1001.73
2023-01-07T23:41:10.032Z,1001.70
2023-01-07T23:42:10.090Z,1001.71
2023-01-07T23:43:09.945Z,1001.69
2023-01-07T23:44:09.908Z,1001.74
2023-01-07T23:45:09.855Z,1001.77
2023-01-07T23:46:09.877Z,1001.76
2023-01-07T23:47:09.767Z,1001.82
2023-01-07T23:48:09.729Z,1001.84
2023-01-07T23:49:09.679Z,1001.85
2023-01-07T23:50:09.903Z,1001.86
2023-01-07T23:51:09.636Z,1001.89
2023-01-07T23:52:09.563Z,1001.79
2023-01-07T23:53:09.501Z,1001.80
2023-01-07T23:54:09.457Z,1001.81
2023-01-07T23:55:09.420Z,1001.82
2023-01-07T23:56:09.367Z,1001.79
2023-01-07T23:57:09.325Z,1001.76
2023-01-07T23:58:09.279Z,1001.71
2023-01-07T23:59:09.241Z,1001.81
